Time;durP1;ratioP1;P1;durP2;ratioP2;P2;SDS_P1;SDS_P2;PMS_P1;PMS_P2;Temp;Humidity;BMP_temperature;BMP_pressure;BME280_temperature;BME280_humidity;BME280_pressure;Samples;Min_cycle;Max_cycle;Signal;HPM_P1;HPM_P2
2021/11/28 00:04:23;;;;;;;7.00;2.65;;;;;;;;;;10474970;28;20042;-76
2021/11/28 00:15:00;;;;;;;3.70;2.55;;;;;;;;;;10447941;28;20106;-76
2021/11/28 00:20:02;;;;;;;4.60;3.00;;;;;;;;;;10472523;28;20049;-76
2021/11/28 00:25:05;;;;;;;3.95;2.55;;;;;;;;;;10482727;28;20434;-77
2021/11/28 00:30:07;;;;;;;3.95;2.35;;;;;;;;;;10468830;23;20141;-81
2021/11/28 00:35:08;;;;;;;3.97;2.40;;;;;;;;;;10374263;28;20042;-82
2021/11/28 00:40:09;;;;;;;3.35;2.20;;;;;;;;;;10376201;28;20376;-82
2021/11/28 00:45:10;;;;;;;4.05;2.50;;;;;;;;;;10378058;28;20037;-82
2021/11/28 00:55:12;;;;;;;5.80;2.50;;;;;;;;;;10377867;28;20057;-82
2021/11/28 01:00:13;;;;;;;3.42;2.05;;;;;;;;;;10378178;28;20996;-81
2021/11/28 01:05:14;;;;;;;2.88;2.25;;;;;;;;;;10375842;28;20054;-81
2021/11/28 01:10:15;;;;;;;4.43;2.40;;;;;;;;;;10368046;28;20065;-82
2021/11/28 01:15:16;;;;;;;4.00;1.90;;;;;;;;;;10375204;28;20439;-82
2021/11/28 01:20:16;;;;;;;2.58;2.03;;;;;;;;;;10361253;28;20038;-83
2021/11/28 01:25:17;;;;;;;2.75;2.13;;;;;;;;;;10374747;28;20037;-83
2021/11/28 01:30:17;;;;;;;1.98;1.77;;;;;;;;;;10373525;28;20083;-83
2021/11/28 01:35:18;;;;;;;3.65;2.08;;;;;;;;;;10371127;28;20483;-80
2021/11/28 01:40:21;;;;;;;2.75;1.90;;;;;;;;;;10382028;28;20116;-81
2021/11/28 01:45:25;;;;;;;2.92;1.90;;;;;;;;;;10372145;28;20022;-82
2021/11/28 01:50:29;;;;;;;2.63;1.92;;;;;;;;;;10360210;28;20038;-82
2021/11/28 01:55:31;;;;;;;6.80;1.92;;;;;;;;;;10360336;28;20032;-81
2021/11/28 02:00:42;;;;;;;3.88;2.15;;;;;;;;;;10367149;28;20036;-81
2021/11/28 02:05:46;;;;;;;3.42;2.15;;;;;;;;;;10384889;28;20088;-82
2021/11/28 02:10:47;;;;;;;2.45;1.88;;;;;;;;;;10374082;28;20500;-82
2021/11/28 02:15:48;;;;;;;3.78;2.00;;;;;;;;;;10369677;28;20037;-81
2021/11/28 02:20:53;;;;;;;5.40;1.92;;;;;;;;;;10356889;28;20037;-81
2021/11/28 02:26:01;;;;;;;4.90;1.90;;;;;;;;;;10374013;28;20030;-81
2021/11/28 02:31:02;;;;;;;4.53;1.80;;;;;;;;;;10370091;28;20050;-82
2021/11/28 02:36:03;;;;;;;4.50;1.90;;;;;;;;;;10371973;28;20057;-82
2021/11/28 02:41:04;;;;;;;8.10;1.95;;;;;;;;;;10372514;28;20030;-82
2021/11/28 02:46:06;;;;;;;2.15;1.70;;;;;;;;;;10371552;28;20018;-82
2021/11/28 02:51:07;;;;;;;4.05;1.70;;;;;;;;;;10359231;28;20428;-81
2021/11/28 02:56:07;;;;;;;3.60;2.00;;;;;;;;;;10365082;28;20072;-82
2021/11/28 03:01:14;;;;;;;2.88;2.05;;;;;;;;;;10371508;28;20030;-82
2021/11/28 03:06:14;;;;;;;2.53;1.75;;;;;;;;;;10379386;28;20104;-81
2021/11/28 03:11:15;;;;;;;2.03;1.80;;;;;;;;;;10372791;28;20133;-82
2021/11/28 03:16:19;;;;;;;3.97;1.90;;;;;;;;;;10373335;28;20037;-82
2021/11/28 03:21:28;;;;;;;4.18;1.75;;;;;;;;;;10357665;28;20030;-81
2021/11/28 03:26:34;;;;;;;;;;;;;;;;;;10367381;28;20018;-81
2021/11/28 03:31:37;;;;;;;2.08;1.50;;;;;;;;;;10368002;28;20421;-82
2021/11/28 03:36:43;;;;;;;2.33;1.63;;;;;;;;;;10368729;28;20092;-82
2021/11/28 03:41:46;;;;;;;1.75;1.63;;;;;;;;;;10368012;28;20036;-82
2021/11/28 03:46:46;;;;;;;2.75;1.58;;;;;;;;;;10370189;28;20032;-82
2021/11/28 03:51:47;;;;;;;2.25;1.60;;;;;;;;;;10370391;28;20368;-82
2021/11/28 03:56:48;;;;;;;2.50;1.98;;;;;;;;;;10371547;28;20419;-82
2021/11/28 04:01:48;;;;;;;1.95;1.42;;;;;;;;;;10371563;28;20042;-82
2021/11/28 04:06:49;;;;;;;1.75;1.50;;;;;;;;;;10372010;28;20054;-83
2021/11/28 04:11:49;;;;;;;1.65;1.50;;;;;;;;;;10373932;28;20112;-82
2021/11/28 04:16:49;;;;;;;2.77;1.60;;;;;;;;;;10379086;28;20109;-82
2021/11/28 04:21:50;;;;;;;1.70;1.60;;;;;;;;;;10372445;28;20973;-82
2021/11/28 04:26:50;;;;;;;2.43;1.57;;;;;;;;;;10378630;28;20113;-82
2021/11/28 04:31:51;;;;;;;1.73;1.43;;;;;;;;;;10369067;28;20791;-81
2021/11/28 04:36:51;;;;;;;2.88;1.60;;;;;;;;;;10378187;28;20034;-81
2021/11/28 04:41:51;;;;;;;1.48;1.38;;;;;;;;;;10375799;28;20113;-82
2021/11/28 04:46:52;;;;;;;1.77;1.65;;;;;;;;;;10376510;28;20432;-82
2021/11/28 04:51:53;;;;;;;1.83;1.45;;;;;;;;;;10369803;28;20117;-82
2021/11/28 04:56:53;;;;;;;1.80;1.60;;;;;;;;;;10357352;28;20037;-81
2021/11/28 05:01:54;;;;;;;2.63;1.77;;;;;;;;;;10363105;28;20108;-82
2021/11/28 05:06:54;;;;;;;1.60;1.45;;;;;;;;;;10376614;28;20092;-82
2021/11/28 05:11:54;;;;;;;1.90;1.60;;;;;;;;;;10375383;28;20038;-81
2021/11/28 05:16:55;;;;;;;1.33;1.23;;;;;;;;;;10376124;28;20520;-80
2021/11/28 05:21:55;;;;;;;3.00;1.40;;;;;;;;;;10375733;28;20475;-80
2021/11/28 05:26:56;;;;;;;1.70;1.30;;;;;;;;;;10375281;28;20455;-80
2021/11/28 05:31:56;;;;;;;2.28;1.63;;;;;;;;;;10374663;28;20479;-81
2021/11/28 05:36:56;;;;;;;1.27;1.20;;;;;;;;;;10366264;28;20116;-81
2021/11/28 05:41:58;;;;;;;1.63;1.27;;;;;;;;;;10357528;28;20033;-81
2021/11/28 05:46:58;;;;;;;1.92;1.33;;;;;;;;;;10373721;28;20426;-81
2021/11/28 05:51:59;;;;;;;2.38;1.25;;;;;;;;;;10375334;28;20037;-80
2021/11/28 05:56:59;;;;;;;2.80;1.45;;;;;;;;;;10374988;28;20105;-80
2021/11/28 06:02:00;;;;;;;1.37;1.27;;;;;;;;;;10380308;28;20030;-80
2021/11/28 06:07:00;;;;;;;2.10;2.00;;;;;;;;;;10372256;28;20468;-81
2021/11/28 06:12:00;;;;;;;2.33;2.13;;;;;;;;;;10372707;28;20034;-80
2021/11/28 06:17:01;;;;;;;4.80;4.30;;;;;;;;;;10369946;28;20057;-81
2021/11/28 06:22:02;;;;;;;4.50;4.20;;;;;;;;;;10372267;28;20542;-81
2021/11/28 06:27:03;;;;;;;4.22;3.92;;;;;;;;;;10370901;28;20022;-81
2021/11/28 06:32:03;;;;;;;1.52;1.42;;;;;;;;;;10371002;28;20132;-82
2021/11/28 06:37:04;;;;;;;1.00;1.00;;;;;;;;;;10362222;28;20049;-82
2021/11/28 06:42:04;;;;;;;1.40;1.30;;;;;;;;;;10362516;28;20040;-82
2021/11/28 06:47:05;;;;;;;2.22;1.63;;;;;;;;;;10363655;28;20426;-83
2021/11/28 06:52:06;;;;;;;3.97;1.33;;;;;;;;;;10371009;28;20048;-82
2021/11/28 06:57:06;;;;;;;1.48;1.30;;;;;;;;;;10372889;28;20038;-82
2021/11/28 07:02:07;;;;;;;1.88;1.30;;;;;;;;;;10372520;28;20030;-82
2021/11/28 07:07:08;;;;;;;1.70;1.20;;;;;;;;;;10372928;28;20364;-81
2021/11/28 07:12:09;;;;;;;2.13;1.23;;;;;;;;;;10355478;28;20091;-81
2021/11/28 07:17:09;;;;;;;1.73;1.20;;;;;;;;;;10358261;28;20080;-80
2021/11/28 07:22:10;;;;;;;2.85;1.30;;;;;;;;;;10361591;28;20137;-82
2021/11/28 07:27:10;;;;;;;3.20;1.13;;;;;;;;;;10367503;28;20030;-82
2021/11/28 07:32:10;;;;;;;1.23;1.13;;;;;;;;;;10374046;28;20060;-81
2021/11/28 07:37:11;;;;;;;1.35;1.20;;;;;;;;;;10365020;28;20065;-81
2021/11/28 07:42:12;;;;;;;1.40;1.30;;;;;;;;;;10373836;28;20030;-82
2021/11/28 07:47:12;;;;;;;1.83;1.30;;;;;;;;;;10379491;28;20459;-81
2021/11/28 07:52:13;;;;;;;1.75;1.25;;;;;;;;;;10376986;28;20034;-81
2021/11/28 07:57:13;;;;;;;2.13;1.20;;;;;;;;;;10379102;28;20555;-81
2021/11/28 08:02:18;;;;;;;1.30;1.20;;;;;;;;;;10378815;28;20053;-81
2021/11/28 08:07:19;;;;;;;1.20;1.13;;;;;;;;;;10360391;28;20431;-81
2021/11/28 08:12:21;;;;;;;1.02;1.02;;;;;;;;;;10374981;28;20083;-81
2021/11/28 08:17:21;;;;;;;15.93;14.93;;;;;;;;;;10374100;28;20030;-81
2021/11/28 08:22:22;;;;;;;16.60;15.40;;;;;;;;;;10378779;28;20022;-80
2021/11/28 08:27:22;;;;;;;16.37;15.37;;;;;;;;;;10376903;28;20451;-82
2021/11/28 08:35:40;;;;;;;6.13;1.80;;;;;;;;;;10476458;28;20625;-88
2021/11/28 08:40:41;;;;;;;6.82;1.80;;;;;;;;;;10456806;28;20029;-84
2021/11/28 08:45:42;;;;;;;11.15;1.80;;;;;;;;;;10446120;28;20116;-84
2021/11/28 08:50:42;;;;;;;3.45;1.83;;;;;;;;;;10450818;28;20116;-83
2021/11/28 08:55:42;;;;;;;1.85;1.42;;;;;;;;;;10439361;28;20036;-84
2021/11/28 09:00:43;;;;;;;2.50;1.40;;;;;;;;;;10445798;28;20116;-84
2021/11/28 09:05:43;;;;;;;6.85;1.63;;;;;;;;;;10435124;28;20449;-85
2021/11/28 09:10:44;;;;;;;5.47;1.90;;;;;;;;;;10443815;28;20390;-84
2021/11/28 09:15:45;;;;;;;4.82;1.58;;;;;;;;;;10430270;28;20436;-85
2021/11/28 09:28:18;;;;;;;15.35;1.67;;;;;;;;;;10573660;28;20040;-82
2021/11/28 09:33:18;;;;;;;7.43;1.70;;;;;;;;;;10551300;28;20081;-84
2021/11/28 09:38:19;;;;;;;4.53;1.60;;;;;;;;;;10567384;28;20535;-84
2021/11/28 09:43:20;;;;;;;3.58;1.98;;;;;;;;;;10554309;28;20039;-84
2021/11/28 09:48:23;;;;;;;2.35;1.77;;;;;;;;;;10546018;28;20040;-84
2021/11/28 09:53:23;;;;;;;2.47;1.55;;;;;;;;;;10553313;28;20060;-83
2021/11/28 09:58:25;;;;;;;5.32;1.55;;;;;;;;;;10565503;28;20024;-84
2021/11/28 10:03:26;;;;;;;8.68;1.73;;;;;;;;;;10544610;28;20027;-83
2021/11/28 10:08:27;;;;;;;8.32;1.60;;;;;;;;;;10539838;28;20017;-83
2021/11/28 10:13:27;;;;;;;8.88;2.00;;;;;;;;;;10529999;28;20359;-86
2021/11/28 10:29:19;;;;;;;4.68;1.38;;;;;;;;;;10514157;28;20536;-78
2021/11/28 10:34:22;;;;;;;11.15;1.88;;;;;;;;;;10487948;28;20119;-78
2021/11/28 10:39:23;;;;;;;6.45;1.50;;;;;;;;;;10487747;28;21841;-78
2021/11/28 10:44:25;;;;;;;4.72;1.42;;;;;;;;;;10487832;28;20037;-78
2021/11/28 10:49:26;;;;;;;3.65;1.80;;;;;;;;;;10479340;28;20020;-78
2021/11/28 10:54:32;;;;;;;4.15;2.03;;;;;;;;;;10483677;28;20041;-79
2021/11/28 10:59:33;;;;;;;4.90;1.70;;;;;;;;;;10488378;28;20460;-78
2021/11/28 11:04:38;;;;;;;3.15;1.55;;;;;;;;;;10487637;28;20032;-78
2021/11/28 11:09:44;;;;;;;3.55;1.58;;;;;;;;;;10453360;28;20037;-78
2021/11/28 11:14:44;;;;;;;3.08;1.70;;;;;;;;;;10485927;28;20120;-78
2021/11/28 11:19:47;;;;;;;4.10;1.58;;;;;;;;;;10470472;28;20520;-78
2021/11/28 11:25:03;;;;;;;1.92;1.40;;;;;;;;;;10486616;28;20056;-79
2021/11/28 11:30:10;;;;;;;2.40;1.30;;;;;;;;;;10451174;28;20036;-79
2021/11/28 11:35:19;;;;;;;3.25;1.77;;;;;;;;;;10444968;28;20063;-79
2021/11/28 11:40:25;;;;;;;3.80;1.45;;;;;;;;;;10448592;28;20025;-79
2021/11/28 11:45:29;;;;;;;2.90;1.50;;;;;;;;;;10426104;28;20025;-79
2021/11/28 11:50:32;;;;;;;2.60;1.50;;;;;;;;;;10458216;28;20457;-80
2021/11/28 11:55:39;;;;;;;9.90;1.58;;;;;;;;;;10432247;28;20061;-79
2021/11/28 12:00:48;;;;;;;3.17;1.45;;;;;;;;;;10439904;28;20120;-79
2021/11/28 12:05:50;;;;;;;1.95;1.42;;;;;;;;;;10428308;28;20044;-79
2021/11/28 12:11:00;;;;;;;1.83;1.40;;;;;;;;;;10437084;28;20056;-79
2021/11/28 12:16:03;;;;;;;2.17;1.27;;;;;;;;;;10440421;28;20028;-78
2021/11/28 12:21:10;;;;;;;1.98;1.13;;;;;;;;;;10442623;28;20040;-79
2021/11/28 12:26:29;;;;;;;3.65;1.40;;;;;;;;;;10457412;28;20583;-78
2021/11/28 12:31:35;;;;;;;1.67;1.40;;;;;;;;;;10524512;23;20057;-75
2021/11/28 12:36:43;;;;;;;2.05;1.30;;;;;;;;;;10421024;28;20036;-76
2021/11/28 12:41:47;;;;;;;1.48;1.25;;;;;;;;;;10426751;28;20035;-76
2021/11/28 12:46:54;;;;;;;2.25;1.35;;;;;;;;;;10426105;28;20374;-77
2021/11/28 12:51:56;;;;;;;2.22;1.35;;;;;;;;;;10425437;28;20100;-75
2021/11/28 12:57:16;;;;;;;2.35;1.20;;;;;;;;;;10427960;28;20056;-77
2021/11/28 13:02:41;;;;;;;1.30;1.20;;;;;;;;;;10426653;28;20037;-77
2021/11/28 13:07:42;;;;;;;3.08;1.30;;;;;;;;;;10427251;28;20446;-76
2021/11/28 13:12:42;;;;;;;3.35;1.80;;;;;;;;;;10414028;28;20109;-77
2021/11/28 13:17:43;;;;;;;4.10;1.40;;;;;;;;;;10406161;28;20026;-77
2021/11/28 13:22:43;;;;;;;1.60;1.23;;;;;;;;;;10422485;28;20038;-76
2021/11/28 13:27:43;;;;;;;2.95;1.88;;;;;;;;;;10414518;28;20454;-76
2021/11/28 13:32:44;;;;;;;2.73;1.60;;;;;;;;;;10407150;28;20018;-76
2021/11/28 13:37:44;;;;;;;1.92;1.27;;;;;;;;;;10404885;28;20470;-76
2021/11/28 13:42:45;;;;;;;1.10;1.03;;;;;;;;;;10424149;28;20034;-76
2021/11/28 13:47:51;;;;;;;2.15;1.23;;;;;;;;;;10424760;28;20466;-77
2021/11/28 13:52:51;;;;;;;5.22;1.45;;;;;;;;;;10410350;28;20112;-77
2021/11/28 13:58:03;;;;;;;1.40;1.10;;;;;;;;;;10424815;28;20060;-76
2021/11/28 14:03:03;;;;;;;2.75;1.40;;;;;;;;;;10422936;28;20458;-76
2021/11/28 14:08:04;;;;;;;1.63;1.40;;;;;;;;;;10417617;28;20036;-78
2021/11/28 14:13:04;;;;;;;3.03;1.60;;;;;;;;;;10424520;28;20033;-79
2021/11/28 14:18:09;;;;;;;1.88;1.50;;;;;;;;;;10417990;28;20505;-79
2021/11/28 14:23:12;;;;;;;1.35;1.25;;;;;;;;;;10417083;28;20030;-79
2021/11/28 14:28:23;;;;;;;1.80;1.48;;;;;;;;;;10419349;28;20552;-79
2021/11/28 14:33:45;;;;;;;2.72;1.50;;;;;;;;;;10419909;28;20044;-79
2021/11/28 14:38:45;;;;;;;3.03;1.45;;;;;;;;;;10424156;28;20036;-80
2021/11/28 14:43:53;;;;;;;4.23;1.53;;;;;;;;;;10419237;28;20085;-79
2021/11/28 14:49:01;;;;;;;3.07;1.43;;;;;;;;;;10424060;28;20013;-79
2021/11/28 14:54:15;;;;;;;4.90;1.80;;;;;;;;;;10408981;28;20431;-79
2021/11/28 14:59:23;;;;;;;1.67;1.40;;;;;;;;;;10424047;28;20042;-82
2021/11/28 15:04:26;;;;;;;2.20;1.60;;;;;;;;;;10430721;28;20069;-82
2021/11/28 15:09:49;;;;;;;2.75;1.77;;;;;;;;;;10433502;28;20385;-83
2021/11/28 15:14:50;;;;;;;2.20;1.70;;;;;;;;;;10430918;28;20059;-82
2021/11/28 15:20:11;;;;;;;4.88;1.85;;;;;;;;;;10427634;28;20053;-82
2021/11/28 15:25:14;;;;;;;3.28;1.70;;;;;;;;;;10432137;28;20371;-83
2021/11/28 15:30:16;;;;;;;3.08;2.03;;;;;;;;;;10428920;28;20059;-83
2021/11/28 15:35:18;;;;;;;3.47;1.80;;;;;;;;;;10427445;28;20080;-83
2021/11/28 15:40:21;;;;;;;3.40;2.03;;;;;;;;;;10418731;28;20041;-84
2021/11/28 15:45:22;;;;;;;3.22;2.22;;;;;;;;;;10419868;28;20067;-83
2021/11/28 15:50:23;;;;;;;2.10;1.90;;;;;;;;;;10430768;28;20055;-84
2021/11/28 15:55:24;;;;;;;5.18;2.25;;;;;;;;;;10428778;28;20036;-86
2021/11/28 16:00:24;;;;;;;6.50;2.00;;;;;;;;;;10428885;28;20477;-84
2021/11/28 16:05:25;;;;;;;6.07;1.90;;;;;;;;;;10425904;28;20025;-84
2021/11/28 16:10:26;;;;;;;2.55;2.10;;;;;;;;;;10422582;28;20029;-84
2021/11/28 16:15:26;;;;;;;3.25;2.42;;;;;;;;;;10425941;28;20049;-84
2021/11/28 16:20:27;;;;;;;4.63;2.63;;;;;;;;;;10420855;28;20054;-84
2021/11/28 16:25:28;;;;;;;4.93;2.33;;;;;;;;;;10423385;28;20033;-84
2021/11/28 16:30:40;;;;;;;5.55;2.75;;;;;;;;;;10425170;28;20469;-84
2021/11/28 16:35:41;;;;;;;4.28;2.80;;;;;;;;;;10422800;28;20114;-84
2021/11/28 16:40:41;;;;;;;5.30;2.60;;;;;;;;;;10426699;28;20480;-84
2021/11/28 16:45:44;;;;;;;6.07;3.17;;;;;;;;;;10427998;28;20376;-85
2021/11/28 16:50:45;;;;;;;4.72;2.60;;;;;;;;;;10421999;28;20029;-83
2021/11/28 16:55:45;;;;;;;4.30;2.80;;;;;;;;;;10428878;28;20077;-83
2021/11/28 17:00:46;;;;;;;5.40;2.85;;;;;;;;;;10428571;28;20065;-83
2021/11/28 17:05:46;;;;;;;12.17;3.13;;;;;;;;;;10427578;28;20044;-86
2021/11/28 17:10:46;;;;;;;5.67;3.20;;;;;;;;;;10428834;28;20475;-86
2021/11/28 17:15:47;;;;;;;5.25;3.28;;;;;;;;;;10426370;28;20036;-85
2021/11/28 17:20:48;;;;;;;7.07;3.63;;;;;;;;;;10414610;28;20022;-85
2021/11/28 17:25:48;;;;;;;4.35;3.08;;;;;;;;;;10425798;28;20037;-84
2021/11/28 17:30:53;;;;;;;5.95;3.63;;;;;;;;;;10419066;28;20388;-87
2021/11/28 17:35:54;;;;;;;6.03;3.80;;;;;;;;;;10429712;28;20026;-85
2021/11/28 17:40:55;;;;;;;6.10;4.18;;;;;;;;;;10422506;28;20037;-79
2021/11/28 17:45:55;;;;;;;19.00;5.32;;;;;;;;;;10427277;28;20037;-81
2021/11/28 17:50:56;;;;;;;8.88;4.15;;;;;;;;;;10410092;28;20544;-77
2021/11/28 17:55:56;;;;;;;12.02;4.45;;;;;;;;;;10408245;28;20381;-77
2021/11/28 18:00:57;;;;;;;8.30;4.05;;;;;;;;;;10418350;28;20469;-77
2021/11/28 18:05:57;;;;;;;6.63;4.22;;;;;;;;;;10407695;28;20083;-77
2021/11/28 18:10:58;;;;;;;11.82;4.45;;;;;;;;;;10415731;28;20350;-77
2021/11/28 18:15:59;;;;;;;10.98;4.65;;;;;;;;;;10425805;28;20057;-77
2021/11/28 18:20:59;;;;;;;9.20;3.97;;;;;;;;;;10412425;28;20064;-77
2021/11/28 18:26:00;;;;;;;6.53;4.28;;;;;;;;;;10419226;28;20468;-76
2021/11/28 18:31:00;;;;;;;10.40;4.00;;;;;;;;;;10418982;28;20046;-77
2021/11/28 18:36:01;;;;;;;10.75;4.10;;;;;;;;;;10406760;28;20104;-77
2021/11/28 18:41:02;;;;;;;7.13;3.80;;;;;;;;;;10420473;28;20034;-77
2021/11/28 18:46:02;;;;;;;7.97;3.75;;;;;;;;;;10417625;28;20069;-77
2021/11/28 18:51:11;;;;;;;10.38;3.65;;;;;;;;;;10400328;28;20048;-77
2021/11/28 18:56:12;;;;;;;7.72;4.07;;;;;;;;;;10405637;28;20034;-77
2021/11/28 19:01:14;;;;;;;6.97;3.30;;;;;;;;;;10419188;28;20146;-77
2021/11/28 19:06:16;;;;;;;11.25;3.70;;;;;;;;;;10412126;28;20045;-78
2021/11/28 19:11:16;;;;;;;10.60;3.50;;;;;;;;;;10416689;28;20439;-77
2021/11/28 19:16:17;;;;;;;5.77;3.27;;;;;;;;;;10426700;28;20219;-76
2021/11/28 19:21:17;;;;;;;7.43;3.90;;;;;;;;;;10412745;28;20514;-77
2021/11/28 19:26:20;;;;;;;5.78;4.00;;;;;;;;;;10411809;28;20051;-76
2021/11/28 19:31:21;;;;;;;7.63;3.75;;;;;;;;;;10418873;28;20381;-77
2021/11/28 19:36:22;;;;;;;8.73;3.85;;;;;;;;;;10412258;28;20057;-80
2021/11/28 19:41:28;;;;;;;7.55;4.47;;;;;;;;;;10422753;28;20049;-80
2021/11/28 19:46:30;;;;;;;10.90;3.65;;;;;;;;;;10410368;28;20477;-80
2021/11/28 19:51:32;;;;;;;8.73;3.25;;;;;;;;;;10414702;28;20519;-81
2021/11/28 19:56:33;;;;;;;7.75;3.40;;;;;;;;;;10416316;28;20057;-80
2021/11/28 20:01:33;;;;;;;7.18;3.25;;;;;;;;;;10416689;28;20034;-81
2021/11/28 20:06:34;;;;;;;6.73;2.97;;;;;;;;;;10420823;28;20091;-80
2021/11/28 20:11:35;;;;;;;4.75;3.10;;;;;;;;;;10421045;28;20447;-81
2021/11/28 20:16:39;;;;;;;3.88;2.80;;;;;;;;;;10409157;28;20030;-80
2021/11/28 20:21:39;;;;;;;3.42;2.63;;;;;;;;;;10417599;28;20037;-80
2021/11/28 20:26:42;;;;;;;5.87;2.87;;;;;;;;;;10409939;28;20087;-80
2021/11/28 20:31:45;;;;;;;5.72;3.25;;;;;;;;;;10416066;28;20463;-80
2021/11/28 20:36:46;;;;;;;8.48;2.80;;;;;;;;;;10428956;28;20458;-80
2021/11/28 20:41:47;;;;;;;2.90;2.55;;;;;;;;;;10418061;28;20145;-80
2021/11/28 20:46:49;;;;;;;4.63;2.85;;;;;;;;;;10416670;28;20034;-79
2021/11/28 20:51:49;;;;;;;4.85;2.65;;;;;;;;;;10417057;28;20037;-79
2021/11/28 20:56:50;;;;;;;4.38;2.40;;;;;;;;;;10414929;28;20030;-80
2021/11/28 21:01:50;;;;;;;4.50;2.47;;;;;;;;;;10413231;28;20025;-80
2021/11/28 21:06:52;;;;;;;9.43;2.95;;;;;;;;;;10421525;28;20087;-82
2021/11/28 21:11:52;;;;;;;7.20;3.20;;;;;;;;;;10426685;28;20029;-82
2021/11/28 21:16:54;;;;;;;4.65;2.33;;;;;;;;;;10416587;28;20084;-81
2021/11/28 21:21:54;;;;;;;5.97;2.85;;;;;;;;;;10408782;28;20029;-80
2021/11/28 21:26:55;;;;;;;8.38;2.70;;;;;;;;;;10414568;28;20029;-80
2021/11/28 21:31:55;;;;;;;5.73;2.77;;;;;;;;;;10413658;28;20116;-81
2021/11/28 21:36:55;;;;;;;6.07;2.60;;;;;;;;;;10414246;28;21000;-80
2021/11/28 21:41:56;;;;;;;6.03;2.33;;;;;;;;;;10402353;28;20060;-81
2021/11/28 21:46:56;;;;;;;4.50;2.80;;;;;;;;;;10407515;28;20459;-81
2021/11/28 21:51:57;;;;;;;4.65;2.55;;;;;;;;;;10402479;28;20478;-80
2021/11/28 21:56:58;;;;;;;5.50;2.60;;;;;;;;;;10411042;28;20498;-82
2021/11/28 22:01:59;;;;;;;6.57;2.95;;;;;;;;;;10413126;28;20118;-82
2021/11/28 22:06:59;;;;;;;5.35;2.20;;;;;;;;;;10416458;28;20025;-80
2021/11/28 22:12:00;;;;;;;5.20;2.77;;;;;;;;;;10415893;28;20040;-80
2021/11/28 22:17:00;;;;;;;6.70;2.47;;;;;;;;;;10417803;28;20455;-80
2021/11/28 22:22:00;;;;;;;4.90;2.17;;;;;;;;;;10415409;28;20038;-81
2021/11/28 22:27:01;;;;;;;6.50;2.47;;;;;;;;;;10411962;28;20065;-81
2021/11/28 22:32:02;;;;;;;5.57;2.35;;;;;;;;;;10413401;28;20557;-80
2021/11/28 22:37:04;;;;;;;5.25;2.22;;;;;;;;;;10415527;28;20030;-80
2021/11/28 22:42:04;;;;;;;2.67;2.03;;;;;;;;;;10406709;28;20045;-80
2021/11/28 22:47:07;;;;;;;4.05;2.00;;;;;;;;;;10407966;28;20041;-82
2021/11/28 22:52:08;;;;;;;6.38;2.70;;;;;;;;;;10413186;28;20128;-80
2021/11/28 22:57:09;;;;;;;5.82;1.85;;;;;;;;;;10409785;28;20037;-80
2021/11/28 23:02:09;;;;;;;5.57;2.78;;;;;;;;;;10407683;28;20029;-80
2021/11/28 23:07:10;;;;;;;3.17;1.90;;;;;;;;;;10403631;28;20032;-80
2021/11/28 23:12:10;;;;;;;4.90;2.40;;;;;;;;;;10415250;28;20228;-81
2021/11/28 23:17:11;;;;;;;12.77;2.28;;;;;;;;;;10413536;28;20026;-78
2021/11/28 23:22:11;;;;;;;7.90;2.30;;;;;;;;;;10402828;28;20464;-82
2021/11/28 23:27:15;;;;;;;20.77;3.43;;;;;;;;;;10420806;28;20037;-81
2021/11/28 23:32:17;;;;;;;46.30;4.65;;;;;;;;;;10425151;28;20459;-80
2021/11/28 23:37:17;;;;;;;14.68;3.70;;;;;;;;;;10428060;28;20042;-81
2021/11/28 23:42:18;;;;;;;15.52;3.63;;;;;;;;;;10428101;28;20033;-82
